Ansonia, Ohio
Current Conditions -  °F | °C
As of 10:55 PM on Wednesday 22 Oct 2014 (Local Time) from KVES Reporting Station
Scattered Clouds Scattered Clouds  
Wind Chill: 43°   Ceiling: Unl
Heat Index: 43°   Visibility: 10mi
Dew Point: 39°   Wind: 0mph
Humidity: 87%   Direction: NA
Pressure: 30.27"   Gusts: NA
Location:  40.21°N, 84.64°W
Report Text: KVES 230255Z AUTO 00000KT 10SM SCT018 06/04 A3027 RMK AO2
Loading
Personal Weather Stations






























Interactive Weather Map
Tropical Storm Tracking
New forecast layout! Learn more

10-Day Weather Forecast

Advertisements
Track Severe Weather on mobile